Time;durP1;ratioP1;P1;durP2;ratioP2;P2;SDS_P1;SDS_P2;PMS_P1;PMS_P2;Temp;Humidity;BMP_temperature;BMP_pressure;BME280_temperature;BME280_humidity;BME280_pressure;Samples;Min_cycle;Max_cycle;Signal;HPM_P1;HPM_P2
2023/10/16 00:01:16;;;;;;;2.37;1.00;;;;;;;5.01;100.00;96877.78;5036605;28;20236;-69
2023/10/16 00:03:43;;;;;;;2.20;1.27;;;;;;;5.01;100.00;96875.16;5036732;28;20293;-69
2023/10/16 00:06:12;;;;;;;1.10;1.07;;;;;;;4.97;100.00;96875.56;5036047;28;21225;-70
2023/10/16 00:08:46;;;;;;;1.50;1.10;;;;;;;4.98;100.00;96867.59;5036557;28;20203;-69
2023/10/16 00:11:16;;;;;;;1.80;1.00;;;;;;;5.27;100.00;96873.84;5036307;28;20289;-69
2023/10/16 00:13:43;;;;;;;1.90;1.20;;;;;;;5.16;100.00;96863.44;5035956;28;20254;-68
2023/10/16 00:16:15;;;;;;;1.60;1.20;;;;;;;5.15;100.00;96867.00;5036634;28;20196;-69
2023/10/16 00:18:42;;;;;;;1.87;1.00;;;;;;;5.23;100.00;96872.44;5036236;28;20265;-70
2023/10/16 00:21:08;;;;;;;1.57;1.00;;;;;;;5.09;100.00;96875.38;5036348;28;20361;-69
2023/10/16 00:23:39;;;;;;;1.13;0.93;;;;;;;5.25;100.00;96875.72;5035775;28;20220;-70
2023/10/16 00:26:06;;;;;;;0.90;0.90;;;;;;;4.93;100.00;96874.97;5037113;28;20287;-70
2023/10/16 00:28:33;;;;;;;1.47;1.00;;;;;;;4.88;100.00;96869.31;5035287;28;20204;-69
2023/10/16 00:31:00;;;;;;;1.63;1.20;;;;;;;4.59;100.00;96869.25;5036587;28;20195;-69
2023/10/16 00:33:27;;;;;;;2.20;0.97;;;;;;;4.84;100.00;96869.72;5037035;28;20238;-69
2023/10/16 00:35:54;;;;;;;1.70;1.10;;;;;;;4.90;100.00;96869.19;5036165;28;20738;-70
2023/10/16 00:38:22;;;;;;;1.83;1.00;;;;;;;4.97;100.00;96865.94;5035412;28;20406;-70
2023/10/16 00:41:09;;;;;;;1.00;0.80;;;;;;;5.10;100.00;96856.13;5036664;28;20239;-69
2023/10/16 00:43:36;;;;;;;2.43;1.50;;;;;;;4.81;100.00;96858.69;5036095;28;20314;-68
2023/10/16 00:46:05;;;;;;;1.83;1.00;;;;;;;4.91;100.00;96857.78;5036197;28;20243;-69
2023/10/16 00:48:33;;;;;;;2.60;1.17;;;;;;;4.91;100.00;96853.41;5035517;28;20257;-69
2023/10/16 00:51:06;;;;;;;1.30;0.93;;;;;;;4.87;100.00;96848.56;5035906;28;20650;-70
2023/10/16 00:53:33;;;;;;;1.17;1.00;;;;;;;4.84;100.00;96848.81;5036149;28;20231;-69
2023/10/16 00:56:07;;;;;;;1.87;0.90;;;;;;;4.94;100.00;96840.09;5035651;28;20223;-70
2023/10/16 00:58:34;;;;;;;3.63;1.30;;;;;;;4.62;100.00;96843.72;5035799;28;20585;-70
2023/10/16 01:01:03;;;;;;;2.90;1.23;;;;;;;4.35;100.00;96839.94;5035941;28;20228;-69
2023/10/16 01:03:31;;;;;;;1.30;1.10;;;;;;;4.47;100.00;96844.97;5036059;28;20223;-70
2023/10/16 01:05:58;;;;;;;2.10;1.00;;;;;;;4.64;100.00;96836.59;5035858;28;20294;-69
2023/10/16 01:08:25;;;;;;;1.60;0.97;;;;;;;4.77;100.00;96825.97;5035332;28;20442;-70
2023/10/16 01:10:57;;;;;;;1.43;1.10;;;;;;;4.74;100.00;96834.06;5039185;28;20666;-69
2023/10/16 01:13:28;;;;;;;1.20;1.10;;;;;;;4.75;100.00;96828.69;5039933;28;20237;-70
2023/10/16 01:15:56;;;;;;;5.53;2.07;;;;;;;4.44;100.00;96821.75;5039195;28;20741;-69
2023/10/16 01:18:23;;;;;;;5.33;1.30;;;;;;;4.19;100.00;96821.28;5039020;28;20209;-68
2023/10/16 01:20:51;;;;;;;2.00;1.23;;;;;;;4.20;100.00;96819.47;5040266;28;20262;-70
2023/10/16 01:23:20;;;;;;;1.70;1.10;;;;;;;4.36;100.00;96816.31;5039713;28;20224;-69
2023/10/16 01:25:48;;;;;;;1.23;1.13;;;;;;;4.09;100.00;96812.53;5040627;28;20208;-69
2023/10/16 01:28:15;;;;;;;1.50;1.40;;;;;;;4.02;100.00;96813.13;5039060;28;20201;-69
2023/10/16 01:30:42;;;;;;;2.50;1.67;;;;;;;4.10;100.00;96806.38;5039048;28;20195;-69
2023/10/16 01:33:09;;;;;;;3.37;1.20;;;;;;;4.27;100.00;96808.44;5039478;28;21084;-70
2023/10/16 01:35:36;;;;;;;2.23;1.20;;;;;;;4.34;100.00;96806.97;5040293;28;20670;-69
2023/10/16 01:38:08;;;;;;;2.23;1.17;;;;;;;4.49;100.00;96803.94;5038661;28;20200;-69
2023/10/16 01:40:37;;;;;;;1.20;1.10;;;;;;;4.50;100.00;96808.19;5038590;28;20224;-69
2023/10/16 01:43:05;;;;;;;2.93;1.47;;;;;;;4.39;100.00;96815.25;5038761;28;20281;-68
2023/10/16 01:45:32;;;;;;;3.07;1.13;;;;;;;4.45;100.00;96812.13;5039014;28;20241;-69
2023/10/16 01:48:04;;;;;;;2.33;1.60;;;;;;;4.50;100.00;96809.97;5038879;28;20227;-69
2023/10/16 01:50:30;;;;;;;1.80;1.27;;;;;;;4.49;100.00;96808.31;5038961;28;21138;-69
2023/10/16 01:52:58;;;;;;;1.80;1.37;;;;;;;4.57;100.00;96806.75;5039044;28;20725;-69
2023/10/16 01:55:25;;;;;;;2.17;1.50;;;;;;;4.65;100.00;96811.31;5039046;28;20223;-69
2023/10/16 01:57:53;;;;;;;1.73;1.20;;;;;;;4.69;100.00;96802.28;5038366;28;20702;-69
2023/10/16 02:00:26;;;;;;;2.20;1.40;;;;;;;4.46;100.00;96806.78;5038467;28;20231;-68
2023/10/16 02:02:53;;;;;;;2.43;1.37;;;;;;;4.36;100.00;96803.28;5037525;28;20236;-68
2023/10/16 02:05:19;;;;;;;3.30;1.40;;;;;;;4.21;100.00;96795.88;5036235;28;20212;-68
2023/10/16 02:07:46;;;;;;;3.73;1.40;;;;;;;4.44;100.00;96792.22;5037510;28;20210;-68
2023/10/16 02:10:13;;;;;;;1.43;0.87;;;;;;;4.22;100.00;96793.13;5037248;28;20218;-69
2023/10/16 02:12:40;;;;;;;2.30;1.40;;;;;;;4.26;100.00;96772.84;5037176;28;20223;-69
2023/10/16 02:15:09;;;;;;;1.90;1.37;;;;;;;3.93;100.00;96783.41;5037436;28;20205;-68
2023/10/16 02:17:38;;;;;;;2.30;1.23;;;;;;;4.11;100.00;96786.31;5037156;28;20208;-69
2023/10/16 02:20:11;;;;;;;3.93;1.97;;;;;;;3.74;100.00;96775.44;5036589;28;20956;-70
2023/10/16 02:22:40;;;;;;;2.70;1.57;;;;;;;3.88;100.00;96772.56;5037045;28;20227;-69
2023/10/16 02:25:11;;;;;;;2.10;1.40;;;;;;;3.82;100.00;96770.44;5037432;28;20202;-68
2023/10/16 02:27:37;;;;;;;1.73;1.50;;;;;;;3.64;100.00;96774.50;5036516;28;20198;-68
2023/10/16 02:30:15;;;;;;;4.33;1.33;;;;;;;3.87;100.00;96778.72;5036855;28;20209;-69
2023/10/16 02:32:43;;;;;;;2.20;1.60;;;;;;;4.11;100.00;96774.13;5036850;28;20222;-70
2023/10/16 02:35:13;;;;;;;3.03;1.63;;;;;;;3.87;100.00;96781.31;5036356;28;20571;-69
2023/10/16 02:37:40;;;;;;;3.50;1.57;;;;;;;3.95;100.00;96775.50;5037674;28;20206;-68
2023/10/16 02:40:10;;;;;;;1.90;1.53;;;;;;;4.17;100.00;96776.22;5036474;28;20210;-68
2023/10/16 02:42:39;;;;;;;2.70;1.90;;;;;;;4.20;100.00;96778.59;5036810;28;20315;-68
2023/10/16 02:45:17;;;;;;;2.57;1.40;;;;;;;4.41;100.00;96774.22;5037089;28;20216;-68
2023/10/16 02:47:46;;;;;;;1.80;1.40;;;;;;;4.51;100.00;96777.72;5036611;28;20208;-69
2023/10/16 02:50:14;;;;;;;1.87;1.43;;;;;;;4.45;100.00;96779.03;5035483;28;20211;-69
2023/10/16 02:52:41;;;;;;;3.17;1.80;;;;;;;4.47;100.00;96778.94;5036937;28;20694;-68
2023/10/16 02:55:10;;;;;;;2.60;1.53;;;;;;;4.42;100.00;96778.47;5037035;28;20978;-69
2023/10/16 02:57:40;;;;;;;2.40;1.47;;;;;;;4.37;100.00;96778.84;5036816;28;20619;-68
2023/10/16 03:00:15;;;;;;;3.17;2.07;;;;;;;4.65;100.00;96772.19;5036509;28;20203;-68
2023/10/16 03:02:42;;;;;;;4.10;1.80;;;;;;;4.49;100.00;96774.41;4995972;28;1185658;-68
2023/10/16 03:05:14;;;;;;;2.00;1.40;;;;;;;4.59;100.00;96770.88;5037430;28;20203;-69
2023/10/16 03:07:44;;;;;;;4.43;1.83;;;;;;;4.52;100.00;96779.34;5037904;28;20316;-68
2023/10/16 03:10:11;;;;;;;3.00;1.50;;;;;;;4.46;100.00;96774.66;5036669;28;20202;-69
2023/10/16 03:12:38;;;;;;;4.53;2.20;;;;;;;4.35;100.00;96772.09;5037694;28;20236;-69
2023/10/16 03:15:15;;;;;;;2.80;1.93;;;;;;;4.48;100.00;96772.72;5037697;28;20324;-69
2023/10/16 03:17:41;;;;;;;2.23;1.50;;;;;;;4.37;100.00;96778.03;5037592;28;20208;-69
2023/10/16 03:20:19;;;;;;;4.43;1.70;;;;;;;4.20;100.00;96778.59;5036693;28;20666;-69
2023/10/16 03:22:46;;;;;;;2.27;1.60;;;;;;;4.27;100.00;96784.94;5037174;28;20234;-68
2023/10/16 03:25:25;;;;;;;2.70;1.80;;;;;;;4.29;100.00;96772.63;5037450;28;20219;-68
2023/10/16 03:27:51;;;;;;;2.80;1.90;;;;;;;4.30;100.00;96779.47;5036975;28;20329;-68
2023/10/16 03:30:20;;;;;;;3.67;1.50;;;;;;;4.32;100.00;96772.34;5036579;28;20300;-68
2023/10/16 03:32:47;;;;;;;2.80;1.80;;;;;;;4.20;100.00;96773.38;5036601;28;21078;-69
2023/10/16 03:35:21;;;;;;;2.93;1.60;;;;;;;4.34;100.00;96767.81;5036559;28;20208;-69
2023/10/16 03:37:51;;;;;;;3.17;1.57;;;;;;;4.21;100.00;96764.56;5037630;28;20348;-69
2023/10/16 03:40:19;;;;;;;4.33;1.70;;;;;;;3.97;100.00;96764.00;5036778;28;20291;-68
2023/10/16 03:42:46;;;;;;;3.60;1.80;;;;;;;4.07;100.00;96775.31;5037059;28;20229;-69
2023/10/16 03:45:13;;;;;;;2.47;1.60;;;;;;;4.33;100.00;96766.19;5036812;28;20226;-68
2023/10/16 03:47:41;;;;;;;2.43;1.70;;;;;;;4.25;100.00;96765.97;5037294;28;20213;-70
2023/10/16 03:50:09;;;;;;;3.47;1.77;;;;;;;4.21;100.00;96768.97;5036673;28;20292;-68
2023/10/16 03:52:38;;;;;;;4.27;1.90;;;;;;;4.30;100.00;96761.22;5036608;28;20308;-68
2023/10/16 03:55:22;;;;;;;3.23;2.00;;;;;;;4.30;100.00;96758.59;5038224;28;20281;-68
2023/10/16 03:57:50;;;;;;;2.87;1.80;;;;;;;4.10;100.00;96762.03;5036465;28;20209;-68
2023/10/16 04:00:17;;;;;;;2.23;1.77;;;;;;;4.15;100.00;96759.88;5036173;28;20210;-69
2023/10/16 04:02:44;;;;;;;2.70;1.40;;;;;;;4.26;100.00;96759.81;5036464;28;20267;-69
2023/10/16 04:05:29;;;;;;;2.83;1.67;;;;;;;4.03;100.00;96766.06;5036826;28;20205;-68
2023/10/16 04:07:57;;;;;;;3.53;2.00;;;;;;;4.17;100.00;96757.97;5035740;28;20201;-69
2023/10/16 04:10:28;;;;;;;2.60;1.77;;;;;;;3.82;100.00;96762.63;5036368;28;20668;-69
2023/10/16 04:12:55;;;;;;;4.33;1.70;;;;;;;3.88;100.00;96762.13;5036552;28;20311;-68
2023/10/16 04:15:37;;;;;;;2.83;1.67;;;;;;;4.14;100.00;96753.00;5036690;28;20212;-69
2023/10/16 04:18:05;;;;;;;3.43;1.80;;;;;;;4.07;100.00;96753.63;5036412;28;20194;-69
2023/10/16 04:20:43;;;;;;;2.90;1.60;;;;;;;4.00;100.00;96748.09;5036089;28;20216;-68
2023/10/16 04:23:29;;;;;;;2.73;1.50;;;;;;;4.15;100.00;96749.44;5036062;28;20309;-69
2023/10/16 04:29:20;;;;;;;2.63;1.63;;;;;;;3.95;100.00;96741.59;5035548;28;20217;-69
2023/10/16 04:31:31;;;;;;;2.43;1.70;;;;;;;3.80;100.00;96738.44;5035566;28;20212;-68
2023/10/16 04:34:13;;;;;;;2.30;1.60;;;;;;;3.91;100.00;96737.59;5036183;28;20309;-68
2023/10/16 04:36:52;;;;;;;2.77;1.70;;;;;;;3.90;100.00;96733.31;5036337;28;20207;-69
2023/10/16 04:45:24;;;;;;;3.30;1.87;;;;;;;3.91;100.00;96724.56;5035859;28;20204;-69
2023/10/16 04:47:48;;;;;;;4.23;1.57;;;;;;;4.04;100.00;96717.38;5035400;28;20198;-69
2023/10/16 04:50:15;;;;;;;3.40;2.10;;;;;;;4.08;100.00;96716.19;5035578;28;20667;-68
2023/10/16 04:58:38;;;;;;;2.70;1.43;;;;;;;4.24;100.00;96707.78;5034797;28;20584;-69
2023/10/16 05:04:49;;;;;;;3.70;2.27;;;;;;;4.06;100.00;96711.09;4972406;28;20734;-69
2023/10/16 05:07:17;;;;;;;4.90;2.30;;;;;;;3.95;100.00;96705.91;4973785;28;20363;-69
2023/10/16 05:15:51;;;;;;;6.10;2.47;;;;;;;4.53;100.00;96697.50;4999105;28;20301;-68
2023/10/16 05:18:31;;;;;;;3.63;2.13;;;;;;;4.15;100.00;96699.91;5035312;28;20207;-68
2023/10/16 05:21:19;;;;;;;4.10;2.10;;;;;;;4.38;100.00;96698.81;5034990;28;20199;-71
2023/10/16 06:15:42;;;;;;;3.13;1.70;;;;;;;3.51;100.00;96720.88;5038519;28;20238;-69
2023/10/16 06:18:09;;;;;;;2.47;1.77;;;;;;;3.78;100.00;96724.72;5038844;28;20202;-69
2023/10/16 06:20:37;;;;;;;4.50;2.07;;;;;;;3.59;100.00;96733.31;5037552;28;20206;-71
2023/10/16 06:23:04;;;;;;;3.17;1.83;;;;;;;3.87;100.00;96737.00;5038260;28;20312;-70
2023/10/16 06:25:35;;;;;;;3.70;2.00;;;;;;;4.14;100.00;96732.13;5038281;28;20713;-73
2023/10/16 06:28:08;;;;;;;4.40;2.33;;;;;;;3.82;100.00;96727.91;5038056;28;20276;-71
2023/10/16 06:30:37;;;;;;;4.93;2.17;;;;;;;4.13;100.00;96730.47;5037682;28;21204;-70
2023/10/16 06:33:05;;;;;;;3.33;1.90;;;;;;;4.48;100.00;96728.38;5038879;28;20318;-71
2023/10/16 06:35:33;;;;;;;2.17;1.97;;;;;;;4.53;100.00;96727.06;5037641;28;20693;-69
2023/10/16 06:38:00;;;;;;;2.83;1.73;;;;;;;4.50;100.00;96729.09;5038245;28;20202;-70
2023/10/16 06:40:27;;;;;;;3.00;1.97;;;;;;;4.55;100.00;96727.72;5036198;28;20207;-73
2023/10/16 06:43:09;;;;;;;3.00;1.93;;;;;;;4.69;100.00;96731.81;5038633;28;20231;-69
2023/10/16 06:45:41;;;;;;;2.93;1.90;;;;;;;4.69;100.00;96723.97;5037389;28;20214;-72
2023/10/16 06:48:10;;;;;;;2.60;1.90;;;;;;;4.85;100.00;96720.75;5038377;28;20292;-70
2023/10/16 06:50:44;;;;;;;2.83;1.90;;;;;;;4.79;100.00;96730.09;5035746;28;20291;-71
2023/10/16 06:53:11;;;;;;;3.63;2.37;;;;;;;4.53;100.00;96728.81;5037009;28;20223;-70
2023/10/16 06:55:37;;;;;;;2.90;1.90;;;;;;;4.58;100.00;96727.50;5037382;28;20204;-73
2023/10/16 06:58:05;;;;;;;3.70;2.20;;;;;;;4.78;100.00;96733.63;5037610;28;20975;-71
2023/10/16 07:00:33;;;;;;;3.47;2.43;;;;;;;4.69;100.00;96734.41;5037384;28;20212;-73
2023/10/16 07:03:02;;;;;;;3.83;2.17;;;;;;;4.75;100.00;96739.94;5037846;28;20224;-71
2023/10/16 07:05:42;;;;;;;3.43;2.30;;;;;;;5.04;100.00;96746.97;5037578;28;20206;-69
2023/10/16 07:08:10;;;;;;;2.93;2.03;;;;;;;4.90;100.00;96736.84;5035782;28;20205;-69
2023/10/16 07:10:40;;;;;;;2.67;2.03;;;;;;;5.05;100.00;96739.94;5037402;28;20212;-70
2023/10/16 07:13:08;;;;;;;2.37;1.90;;;;;;;4.88;100.00;96746.59;5038842;28;20217;-69
2023/10/16 07:15:34;;;;;;;4.27;2.40;;;;;;;4.32;100.00;96756.72;5037116;28;20562;-70
2023/10/16 07:18:05;;;;;;;4.53;2.60;;;;;;;4.36;100.00;96745.06;5036889;28;20675;-69
2023/10/16 07:20:33;;;;;;;3.70;2.30;;;;;;;4.37;100.00;96741.50;5037274;28;20216;-72
2023/10/16 07:23:00;;;;;;;3.43;2.10;;;;;;;4.54;100.00;96749.56;5036947;28;20224;-71
2023/10/16 07:25:47;;;;;;;5.57;1.80;;;;;;;4.76;100.00;96739.00;5036625;28;20201;-70
2023/10/16 07:28:15;;;;;;;5.23;3.03;;;;;;;4.70;100.00;96744.72;5036691;28;20622;-72
2023/10/16 07:30:42;;;;;;;3.00;2.13;;;;;;;4.82;100.00;96741.91;5036707;28;20216;-73
2023/10/16 07:33:14;;;;;;;3.37;1.93;;;;;;;4.73;100.00;96744.47;5036834;28;20307;-72
2023/10/16 07:35:41;;;;;;;3.93;2.10;;;;;;;4.82;100.00;96745.47;5037103;28;20212;-72
2023/10/16 07:38:09;;;;;;;3.50;2.30;;;;;;;4.88;100.00;96743.16;5037116;28;20287;-73
2023/10/16 07:40:38;;;;;;;3.60;2.20;;;;;;;4.79;100.00;96743.13;5036320;28;20558;-69
2023/10/16 07:43:05;;;;;;;2.67;1.77;;;;;;;4.64;100.00;96739.19;5036583;28;20224;-71
2023/10/16 07:45:33;;;;;;;3.17;2.03;;;;;;;4.81;100.00;96739.41;5037256;28;21089;-72
2023/10/16 07:48:07;;;;;;;5.27;2.40;;;;;;;4.90;100.00;96739.47;5036483;28;20204;-69
2023/10/16 07:50:38;;;;;;;3.70;2.40;;;;;;;5.18;100.00;96737.91;5036726;28;20201;-72
2023/10/16 07:53:05;;;;;;;3.40;2.40;;;;;;;4.96;100.00;96736.34;5036453;28;20228;-71
2023/10/16 07:55:39;;;;;;;3.77;2.17;;;;;;;5.34;100.00;96733.03;5036570;28;20233;-70
2023/10/16 07:58:15;;;;;;;5.63;2.50;;;;;;;5.76;100.00;96730.13;5036156;28;20208;-70
2023/10/16 08:00:59;;;;;;;6.27;2.87;;;;;;;5.88;100.00;96719.41;5036679;28;20204;-72
2023/10/16 08:03:26;;;;;;;4.20;2.37;;;;;;;6.20;100.00;96719.97;5035785;28;20232;-70
2023/10/16 08:05:53;;;;;;;6.30;2.30;;;;;;;5.82;100.00;96719.94;5036677;28;20734;-72
2023/10/16 08:08:25;;;;;;;7.63;3.03;;;;;;;5.70;100.00;96720.16;5036001;28;20212;-69
2023/10/16 08:10:53;;;;;;;4.97;2.80;;;;;;;5.89;100.00;96720.22;5035495;28;20373;-72
2023/10/16 08:13:24;;;;;;;4.97;2.77;;;;;;;6.22;100.00;96715.38;5035636;28;20221;-70
2023/10/16 08:15:51;;;;;;;5.67;2.93;;;;;;;6.46;100.00;96706.13;5036185;28;20491;-72
2023/10/16 08:18:19;;;;;;;6.13;3.37;;;;;;;6.70;100.00;96719.59;5035118;28;20205;-70
2023/10/16 08:21:01;;;;;;;3.73;2.37;;;;;;;6.78;100.00;96722.31;5035721;28;20710;-70
2023/10/16 08:23:34;;;;;;;4.83;2.67;;;;;;;6.96;100.00;96713.59;5036272;28;20233;-70
2023/10/16 08:26:04;;;;;;;5.63;2.47;;;;;;;7.14;100.00;96718.88;5035497;28;20201;-69
2023/10/16 08:28:36;;;;;;;6.43;3.23;;;;;;;7.42;100.00;96719.56;5034782;28;20221;-69
2023/10/16 08:31:22;;;;;;;6.80;2.77;;;;;;;7.48;100.00;96716.34;5035182;28;20562;-70
2023/10/16 08:33:50;;;;;;;4.93;2.00;;;;;;;7.65;100.00;96715.56;5035324;28;20220;-71
2023/10/16 08:36:18;;;;;;;4.53;2.57;;;;;;;7.94;100.00;96713.56;5035223;28;20220;-73
2023/10/16 08:38:52;;;;;;;6.13;2.73;;;;;;;7.97;100.00;96715.91;5035462;28;20466;-69
2023/10/16 08:41:29;;;;;;;5.90;3.00;;;;;;;8.25;100.00;96707.81;5034882;28;20205;-70
2023/10/16 08:44:04;;;;;;;9.00;3.03;;;;;;;8.23;100.00;96707.13;5035003;28;20236;-71
2023/10/16 08:46:31;;;;;;;4.80;2.57;;;;;;;8.06;100.00;96713.19;5035466;28;20310;-70
2023/10/16 08:49:01;;;;;;;5.10;2.67;;;;;;;8.40;100.00;96713.34;5034227;28;20204;-70
2023/10/16 08:51:29;;;;;;;5.47;2.73;;;;;;;8.53;100.00;96712.00;5035777;28;20255;-70
2023/10/16 08:54:01;;;;;;;4.67;2.67;;;;;;;8.65;100.00;96716.00;5035201;28;20220;-71
2023/10/16 08:56:27;;;;;;;5.23;2.43;;;;;;;8.51;100.00;96708.69;5034876;28;20245;-70
2023/10/16 08:58:57;;;;;;;4.20;2.53;;;;;;;8.63;100.00;96708.28;5035191;28;20572;-73
2023/10/16 09:01:28;;;;;;;4.43;3.00;;;;;;;8.67;100.00;96717.50;5036030;28;21038;-73
2023/10/16 09:04:01;;;;;;;5.13;2.60;;;;;;;9.16;100.00;96708.91;5035826;28;20239;-69
2023/10/16 09:06:29;;;;;;;4.53;2.17;;;;;;;9.10;100.00;96709.56;5035590;28;20220;-70
2023/10/16 09:08:58;;;;;;;7.00;3.00;;;;;;;9.11;100.00;96705.94;5035578;28;20622;-72
2023/10/16 09:11:26;;;;;;;4.40;2.30;;;;;;;9.33;100.00;96700.97;5035914;28;20205;-72
2023/10/16 09:13:53;;;;;;;3.43;2.23;;;;;;;8.95;100.00;96695.34;5036134;28;20287;-70
2023/10/16 09:16:23;;;;;;;4.23;2.53;;;;;;;9.53;100.00;96701.53;5035248;28;20213;-71
2023/10/16 09:18:52;;;;;;;4.40;2.60;;;;;;;9.44;100.00;96703.28;5035200;28;20205;-69
2023/10/16 09:21:24;;;;;;;5.93;2.53;;;;;;;9.60;100.00;96707.78;5035412;28;20204;-70
2023/10/16 09:23:58;;;;;;;7.80;2.93;;;;;;;9.63;100.00;96702.22;5035454;28;20225;-73
2023/10/16 09:26:28;;;;;;;4.33;2.43;;;;;;;9.90;100.00;96700.97;5035326;28;20224;-71
2023/10/16 09:28:55;;;;;;;5.80;2.07;;;;;;;9.81;100.00;96704.56;5035243;28;20217;-72
2023/10/16 09:31:24;;;;;;;3.60;1.80;;;;;;;10.12;100.00;96697.75;5038016;28;20212;-73
2023/10/16 09:33:51;;;;;;;4.10;2.30;;;;;;;10.16;100.00;96699.06;5038658;28;20229;-72
2023/10/16 09:36:20;;;;;;;4.50;1.93;;;;;;;10.63;100.00;96690.34;5037215;28;20205;-73
2023/10/16 09:38:51;;;;;;;5.17;2.57;;;;;;;10.41;100.00;96695.44;5038822;28;20209;-69
2023/10/16 09:44:07;;;;;;;4.07;2.40;;;;;;;10.42;100.00;96689.19;5039429;28;20718;-72
2023/10/16 09:46:55;;;;;;;5.00;2.53;;;;;;;10.54;100.00;96685.25;5039323;28;20209;-70
2023/10/16 09:49:23;;;;;;;5.00;2.80;;;;;;;10.89;100.00;96684.88;5038443;28;20579;-72
2023/10/16 09:51:51;;;;;;;4.27;2.47;;;;;;;10.79;100.00;96685.03;5039387;28;20205;-71
2023/10/16 09:54:23;;;;;;;4.03;2.43;;;;;;;10.89;100.00;96682.22;5039096;28;20475;-71
2023/10/16 09:56:58;;;;;;;5.03;2.20;;;;;;;11.07;100.00;96694.19;5039034;28;20205;-71
2023/10/16 09:59:31;;;;;;;4.77;2.50;;;;;;;10.94;100.00;96688.63;5038836;28;20235;-72
2023/10/16 10:02:08;;;;;;;5.30;2.93;;;;;;;10.53;100.00;96686.22;5038784;28;20219;-71
2023/10/16 10:04:36;;;;;;;7.13;3.03;;;;;;;10.84;100.00;96684.53;5038856;28;20224;-69
2023/10/16 10:07:19;;;;;;;5.07;2.70;;;;;;;11.10;100.00;96688.59;5038781;28;20198;-70
2023/10/16 10:09:49;;;;;;;4.20;2.60;;;;;;;10.94;100.00;96678.91;5038573;28;20213;-71
2023/10/16 10:12:42;;;;;;;3.60;2.40;;;;;;;10.86;100.00;96675.47;5038504;28;20204;-70
2023/10/16 10:15:22;;;;;;;7.10;2.63;;;;;;;10.84;100.00;96671.34;5024377;28;20197;-73
2023/10/16 10:17:54;;;;;;;4.67;3.27;;;;;;;10.70;100.00;96672.03;5038497;28;20208;-70
2023/10/16 10:20:26;;;;;;;7.77;2.70;;;;;;;10.68;100.00;96668.75;5038421;28;20286;-70
2023/10/16 10:22:57;;;;;;;4.83;2.73;;;;;;;10.66;100.00;96668.91;5038539;28;21068;-69
2023/10/16 10:25:35;;;;;;;4.63;2.80;;;;;;;10.82;100.00;96666.25;5038780;28;20205;-70
2023/10/16 10:28:09;;;;;;;7.43;3.37;;;;;;;10.64;100.00;96667.44;5038689;28;20250;-72
2023/10/16 10:30:40;;;;;;;3.90;2.40;;;;;;;10.88;100.00;96670.03;5038587;28;20283;-70
2023/10/16 10:33:09;;;;;;;6.27;3.17;;;;;;;11.02;100.00;96655.16;5037796;28;20217;-71
2023/10/16 10:35:39;;;;;;;5.33;2.97;;;;;;;10.92;100.00;96663.41;5038701;28;20240;-70
2023/10/16 10:38:17;;;;;;;4.67;2.80;;;;;;;11.10;100.00;96649.84;5037822;28;21069;-70
2023/10/16 10:41:14;;;;;;;5.10;2.70;;;;;;;11.18;100.00;96649.81;5038009;28;20573;-70
2023/10/16 10:43:46;;;;;;;5.17;3.03;;;;;;;11.20;100.00;96649.66;5038701;28;20229;-70
2023/10/16 10:46:13;;;;;;;4.47;2.80;;;;;;;10.96;100.00;96649.75;5037508;28;20205;-70
2023/10/16 10:48:42;;;;;;;3.87;2.50;;;;;;;11.07;100.00;96642.28;5037523;28;20577;-69
2023/10/16 10:51:13;;;;;;;5.47;3.10;;;;;;;11.10;100.00;96647.22;5038322;28;20201;-69
2023/10/16 10:53:53;;;;;;;4.63;2.70;;;;;;;11.45;100.00;96638.81;5038772;28;20595;-67
2023/10/16 10:56:21;;;;;;;3.77;2.33;;;;;;;11.10;100.00;96631.41;5037599;28;20197;-68
2023/10/16 10:58:48;;;;;;;4.80;2.67;;;;;;;11.25;100.00;96628.84;5037549;28;20212;-69
2023/10/16 11:01:26;;;;;;;5.53;3.30;;;;;;;11.21;100.00;96630.19;5038191;28;20205;-71
2023/10/16 11:03:55;;;;;;;4.43;2.23;;;;;;;10.98;100.00;96624.00;5037339;28;20810;-68
2023/10/16 11:06:31;;;;;;;6.33;2.90;;;;;;;11.07;100.00;96620.34;5037788;28;20212;-69
2023/10/16 11:09:10;;;;;;;4.50;2.20;;;;;;;11.09;100.00;96624.47;5037565;28;20212;-68
2023/10/16 11:11:39;;;;;;;5.07;2.80;;;;;;;11.32;100.00;96620.09;5038334;28;20300;-69
2023/10/16 11:14:07;;;;;;;3.57;2.50;;;;;;;11.40;100.00;96617.41;5037913;28;20224;-69
2023/10/16 11:16:33;;;;;;;4.83;2.60;;;;;;;11.33;100.00;96616.47;5037319;28;20231;-69
2023/10/16 11:19:05;;;;;;;4.53;2.70;;;;;;;11.47;100.00;96602.53;5037185;28;20201;-68
2023/10/16 11:21:31;;;;;;;5.07;2.90;;;;;;;11.35;100.00;96613.66;5036994;28;20209;-69
2023/10/16 11:24:00;;;;;;;3.93;2.50;;;;;;;11.40;100.00;96609.47;5037329;28;20770;-69
2023/10/16 11:26:27;;;;;;;6.20;3.23;;;;;;;11.40;100.00;96606.84;5036422;28;20275;-67
2023/10/16 11:28:54;;;;;;;7.87;3.40;;;;;;;11.54;100.00;96597.41;5037153;28;20209;-69
2023/10/16 11:31:22;;;;;;;4.43;2.70;;;;;;;11.28;100.00;96597.69;5037086;28;20606;-68
2023/10/16 11:34:01;;;;;;;4.97;2.90;;;;;;;11.71;100.00;96599.75;5037560;28;20264;-69
2023/10/16 11:36:30;;;;;;;5.03;2.70;;;;;;;11.49;100.00;96592.63;5036001;28;20860;-68
2023/10/16 11:38:59;;;;;;;4.23;2.40;;;;;;;11.49;100.00;96584.69;5037226;28;20205;-70
2023/10/16 11:41:26;;;;;;;5.53;2.90;;;;;;;11.47;100.00;96597.25;5036906;28;20205;-69
2023/10/16 11:43:53;;;;;;;5.50;2.80;;;;;;;11.30;100.00;96590.44;5036573;28;20518;-67
2023/10/16 11:46:29;;;;;;;5.27;2.67;;;;;;;11.30;100.00;96582.53;5035890;28;20254;-69
2023/10/16 11:49:17;;;;;;;4.47;3.03;;;;;;;11.55;100.00;96581.41;5036103;28;20770;-69
2023/10/16 11:51:46;;;;;;;5.27;2.70;;;;;;;11.59;100.00;96564.22;5036978;28;20216;-70
2023/10/16 11:54:18;;;;;;;5.63;2.83;;;;;;;11.51;100.00;96566.06;5034984;28;20221;-68
2023/10/16 11:56:47;;;;;;;3.60;2.23;;;;;;;11.54;100.00;96560.47;5037108;28;20209;-70
2023/10/16 11:59:15;;;;;;;4.37;2.70;;;;;;;11.54;100.00;96553.34;5034891;28;20232;-69
2023/10/16 12:01:43;;;;;;;3.87;2.37;;;;;;;11.60;100.00;96550.03;5036293;28;20212;-68
2023/10/16 12:04:11;;;;;;;4.50;2.70;;;;;;;11.35;100.00;96556.41;5037331;28;20691;-67
2023/10/16 12:06:38;;;;;;;5.63;3.07;;;;;;;11.35;100.00;96552.97;5035661;28;20988;-67
2023/10/16 12:09:12;;;;;;;5.23;2.57;;;;;;;11.55;100.00;96543.63;5036404;28;20282;-69
2023/10/16 12:11:39;;;;;;;4.37;2.43;;;;;;;11.32;100.00;96546.22;5036134;28;20282;-67
2023/10/16 12:14:07;;;;;;;4.73;2.33;;;;;;;11.24;100.00;96550.69;5037021;28;20221;-69
2023/10/16 12:16:34;;;;;;;3.83;2.23;;;;;;;11.28;100.00;96547.56;5035611;28;20702;-70
2023/10/16 12:19:00;;;;;;;3.87;2.57;;;;;;;11.57;100.00;96539.84;5036259;28;20279;-69
2023/10/16 12:21:28;;;;;;;6.40;2.63;;;;;;;11.48;100.00;96535.56;5036037;28;20231;-67
2023/10/16 12:23:55;;;;;;;4.47;2.00;;;;;;;11.60;100.00;96529.72;5035810;28;20236;-69
2023/10/16 12:26:24;;;;;;;2.90;2.03;;;;;;;11.79;100.00;96529.25;5035788;28;20215;-69
2023/10/16 12:28:51;;;;;;;4.77;2.00;;;;;;;11.58;100.00;96521.19;5035557;28;20217;-70
2023/10/16 12:31:17;;;;;;;4.00;2.30;;;;;;;11.64;100.00;96522.28;5036131;28;20208;-69
2023/10/16 12:33:44;;;;;;;3.93;2.30;;;;;;;11.45;100.00;96516.63;5036385;28;20231;-70
2023/10/16 12:36:11;;;;;;;3.37;2.10;;;;;;;11.94;100.00;96508.16;5036269;28;20211;-68
2023/10/16 12:38:37;;;;;;;3.50;1.83;;;;;;;11.86;100.00;96502.94;5035460;28;20232;-70
2023/10/16 12:41:06;;;;;;;3.80;2.23;;;;;;;11.66;100.00;96499.19;5036099;28;20275;-67
2023/10/16 12:43:33;;;;;;;2.57;2.07;;;;;;;11.91;100.00;96495.31;5035712;28;20286;-70
2023/10/16 12:46:00;;;;;;;4.17;1.83;;;;;;;11.90;100.00;96496.31;5036232;28;20217;-69
2023/10/16 12:48:29;;;;;;;3.80;2.50;;;;;;;11.89;100.00;96495.50;5034900;28;20216;-69
2023/10/16 12:50:59;;;;;;;3.97;2.60;;;;;;;11.82;100.00;96485.84;5035482;28;20207;-69
2023/10/16 12:53:27;;;;;;;4.00;2.37;;;;;;;11.95;100.00;96486.88;5034956;28;20248;-69
2023/10/16 12:55:55;;;;;;;3.27;1.97;;;;;;;12.05;100.00;96486.59;5035977;28;20209;-69
2023/10/16 12:58:22;;;;;;;2.90;1.93;;;;;;;12.03;100.00;96483.31;5035414;28;20204;-69
2023/10/16 13:00:50;;;;;;;4.57;2.70;;;;;;;12.37;100.00;96477.34;5036229;28;20282;-69
2023/10/16 13:03:20;;;;;;;3.50;2.30;;;;;;;12.18;100.00;96472.59;5034948;28;20896;-69
2023/10/16 13:05:47;;;;;;;4.67;2.10;;;;;;;11.96;100.00;96470.00;5039610;28;20208;-69